Terminal Aerodrome Forecast
Issued by NWS

Home | Current Version | Previous Version | Text Only | Print | Product List | Glossary On
Versions: 1 2 3 4 5 6 7 8 9 10 11 12 13 14 15 16 17 18 19 20 21 22 23 24 25 26 27 28 29 30 31 32 33 34
539
FTUS41 KOKX 281344 AAA
TAFGON
TAF AMD
KGON 281344Z 2814/2912 20007KT P6SM FEW080
     FM281800 19010KT P6SM FEW080 SCT250
     FM282200 20007KT P6SM FEW080 BKN200
     FM290000 19004KT P6SM SCT070 BKN200
     FM290200 VRB04KT P6SM SCT070 BKN250
     FM290600 VRB03KT P6SM VCSH SCT070 BKN100
     FM290900 VRB03KT 6SM -SHRA BKN070=

USA.gov is the U.S. government's official web portal to all federal, state and local government web resources and services.